createdAt,value
2023-03-26T00:00:45.844Z,4.4643
2023-03-26T00:01:52.880Z,6.9500
2023-03-26T00:02:59.821Z,3.8071
2023-03-26T00:04:06.893Z,4.4214
2023-03-26T00:05:13.786Z,4.0143
2023-03-26T00:06:20.795Z,5.3214
2023-03-26T00:07:27.750Z,4.4000
2023-03-26T00:08:34.769Z,5.2286
2023-03-26T00:09:41.707Z,3.5286
2023-03-26T00:10:48.706Z,7.4714
2023-03-26T00:11:55.703Z,4.5357
2023-03-26T00:13:02.716Z,4.9286
2023-03-26T00:14:09.652Z,3.7714
2023-03-26T00:15:16.642Z,3.8429
2023-03-26T00:16:23.639Z,4.2214
2023-03-26T00:17:30.672Z,4.8714
2023-03-26T00:18:37.593Z,6.2357
2023-03-26T00:19:44.597Z,4.6929
2023-03-26T00:20:51.557Z,5.5429
2023-03-26T00:21:58.550Z,5.5571
2023-03-26T00:23:05.525Z,5.9929
2023-03-26T00:24:12.531Z,4.2786
2023-03-26T00:25:19.488Z,5.3214
2023-03-26T00:26:26.505Z,4.5357
2023-03-26T00:27:33.455Z,4.0429
2023-03-26T00:28:40.725Z,5.0857
2023-03-26T00:29:47.418Z,4.9571
2023-03-26T00:30:54.488Z,3.7643
2023-03-26T00:32:01.403Z,4.2500
2023-03-26T00:33:08.443Z,4.9714
2023-03-26T00:34:15.384Z,6.2500
2023-03-26T00:35:22.448Z,4.8643
2023-03-26T00:36:29.415Z,4.7000
2023-03-26T00:37:36.351Z,4.5286
2023-03-26T00:38:43.325Z,6.2714
2023-03-26T00:39:50.328Z,5.3643
2023-03-26T00:40:57.293Z,5.5500
2023-03-26T00:42:04.287Z,5.6857
2023-03-26T00:43:11.267Z,4.7857
2023-03-26T00:44:18.269Z,5.1286
2023-03-26T00:45:25.231Z,6.1357
2023-03-26T00:46:32.342Z,5.4429
2023-03-26T00:47:39.196Z,5.3357
2023-03-26T00:48:46.311Z,4.8286
2023-03-26T00:49:53.176Z,5.1286
2023-03-26T00:51:00.165Z,5.3571
2023-03-26T00:52:07.130Z,4.8571
2023-03-26T00:53:14.150Z,5.0643
2023-03-26T00:54:21.113Z,5.1214
2023-03-26T00:55:28.110Z,4.2429
2023-03-26T00:56:35.094Z,5.5643
2023-03-26T00:57:42.081Z,5.8000
2023-03-26T00:58:49.058Z,5.3500
2023-03-26T00:59:56.129Z,6.8357
2023-03-26T01:01:03.129Z,7.3429
2023-03-26T01:02:10.084Z,5.2500
2023-03-26T01:03:26.670Z,5.8571
2023-03-26T01:04:28.967Z,6.4133
2023-03-26T01:05:35.814Z,6.1714
2023-03-26T01:06:42.846Z,5.9571
2023-03-26T01:07:49.764Z,5.1357
2023-03-26T01:08:56.779Z,4.8143
2023-03-26T01:10:03.748Z,4.0929
2023-03-26T01:11:10.761Z,4.4214
2023-03-26T01:12:17.730Z,4.0429
2023-03-26T01:13:24.701Z,3.2000
2023-03-26T01:14:31.672Z,5.5643
2023-03-26T01:15:38.707Z,3.3143
2023-03-26T01:16:45.646Z,3.2071
2023-03-26T01:17:52.669Z,4.6643
2023-03-26T01:18:59.608Z,5.3143
2023-03-26T01:20:06.604Z,4.3071
2023-03-26T01:21:13.577Z,6.7786
2023-03-26T01:22:20.617Z,4.8571
2023-03-26T01:23:27.541Z,4.0143
2023-03-26T01:24:34.539Z,4.1143
2023-03-26T01:25:41.513Z,4.2643
2023-03-26T01:26:48.518Z,4.5071
2023-03-26T01:27:55.480Z,4.1071
2023-03-26T01:29:02.477Z,4.9571
2023-03-26T01:30:09.438Z,3.0429
2023-03-26T01:31:16.433Z,4.0214
2023-03-26T01:32:23.456Z,4.0929
2023-03-26T01:33:30.514Z,3.2857
2023-03-26T01:34:37.439Z,5.1357
2023-03-26T01:35:44.439Z,3.3286
2023-03-26T01:36:51.338Z,4.9143
2023-03-26T01:37:58.364Z,3.4643
2023-03-26T01:39:05.317Z,3.9214
2023-03-26T01:40:12.317Z,4.8071
2023-03-26T01:41:19.272Z,4.4143
2023-03-26T01:42:26.301Z,4.6286
2023-03-26T01:43:33.257Z,4.3714
2023-03-26T01:44:40.240Z,3.9786
2023-03-26T01:45:47.197Z,2.6714
2023-03-26T01:46:54.227Z,5.0857
2023-03-26T01:48:01.246Z,4.6286
2023-03-26T01:49:08.195Z,3.8071
2023-03-26T01:50:15.161Z,3.4643
2023-03-26T01:51:22.149Z,4.0500
2023-03-26T01:52:29.114Z,3.6571
2023-03-26T01:53:36.127Z,3.2714
2023-03-26T01:54:43.093Z,5.4286
2023-03-26T01:55:50.102Z,4.0000
2023-03-26T01:56:57.112Z,4.6429
2023-03-26T01:58:04.062Z,3.4571
2023-03-26T01:59:11.043Z,4.5571
2023-03-26T02:00:18.083Z,3.6000
2023-03-26T02:01:25.047Z,2.8643
2023-03-26T02:02:32.137Z,4.1857
2023-03-26T02:03:39.028Z,3.7786
2023-03-26T02:04:45.981Z,3.5000
2023-03-26T02:05:53.229Z,4.0857
2023-03-26T02:06:59.958Z,3.5500
2023-03-26T02:08:06.903Z,3.8500
2023-03-26T02:09:13.912Z,4.6000
2023-03-26T02:10:20.874Z,4.7857
2023-03-26T02:11:35.560Z,3.7929
2023-03-26T02:12:39.640Z,5.9067
2023-03-26T02:13:46.629Z,5.8143
2023-03-26T02:14:53.583Z,3.9429
2023-03-26T02:16:00.649Z,3.4214
2023-03-26T02:17:07.572Z,4.5357
2023-03-26T02:18:14.559Z,4.4571
2023-03-26T02:19:21.838Z,5.4714
2023-03-26T02:20:28.529Z,3.7429
2023-03-26T02:21:35.501Z,3.4929
2023-03-26T02:22:42.499Z,4.6286
2023-03-26T02:23:49.463Z,4.6500
2023-03-26T02:24:56.459Z,4.1214
2023-03-26T02:26:03.418Z,4.2071
2023-03-26T02:27:10.460Z,3.4071
2023-03-26T02:28:17.385Z,4.8214
2023-03-26T02:29:24.382Z,5.3143
2023-03-26T02:30:31.389Z,3.7214
2023-03-26T02:31:38.472Z,4.1571
2023-03-26T02:32:45.354Z,3.8071
2023-03-26T02:33:52.329Z,4.9429
2023-03-26T02:34:59.282Z,4.7500
2023-03-26T02:36:06.353Z,5.0286
2023-03-26T02:37:13.256Z,3.3643
2023-03-26T02:38:20.271Z,3.4929
2023-03-26T02:39:27.241Z,3.8286
2023-03-26T02:40:34.230Z,3.9000
2023-03-26T02:41:41.229Z,4.2714
2023-03-26T02:42:48.195Z,4.1286
2023-03-26T02:43:55.167Z,3.1357
2023-03-26T02:45:02.168Z,2.9429
2023-03-26T02:46:09.172Z,3.7643
2023-03-26T02:47:16.131Z,3.2143
2023-03-26T02:48:23.095Z,4.0143
2023-03-26T02:49:30.121Z,4.9214
2023-03-26T02:50:37.105Z,4.0643
2023-03-26T02:51:44.088Z,4.1286
2023-03-26T02:52:51.041Z,3.8571
2023-03-26T02:53:58.039Z,4.9714
2023-03-26T02:55:05.009Z,3.6143
2023-03-26T02:56:12.033Z,3.3500
2023-03-26T02:57:18.976Z,3.8143
2023-03-26T02:58:25.968Z,3.0500
2023-03-26T02:59:32.932Z,3.8071
2023-03-26T03:00:39.950Z,5.8429
2023-03-26T03:01:46.911Z,4.0929
2023-03-26T03:02:54.010Z,3.8857
2023-03-26T03:04:00.869Z,3.6929
2023-03-26T03:05:07.875Z,3.2000
2023-03-26T03:06:14.853Z,2.8714
2023-03-26T03:07:21.841Z,3.0929
2023-03-26T03:08:28.814Z,2.9500
2023-03-26T03:09:35.807Z,3.6143
2023-03-26T03:10:42.769Z,3.3786
2023-03-26T03:11:49.776Z,4.0714
2023-03-26T03:12:56.733Z,3.1500
2023-03-26T03:14:03.803Z,4.2571
2023-03-26T03:15:10.720Z,3.5357
2023-03-26T03:16:17.753Z,4.6071
2023-03-26T03:17:24.719Z,3.9857
2023-03-26T03:18:31.675Z,2.8143
2023-03-26T03:19:38.653Z,3.4929
2023-03-26T03:20:45.668Z,4.1143
2023-03-26T03:21:52.618Z,2.3571
2023-03-26T03:22:59.624Z,1.9643
2023-03-26T03:24:06.592Z,2.6286
2023-03-26T03:25:13.582Z,2.9357
2023-03-26T03:26:20.565Z,3.3357
2023-03-26T03:27:27.573Z,2.9357
2023-03-26T03:28:34.531Z,4.5357
2023-03-26T03:29:41.529Z,3.3143
2023-03-26T03:30:48.517Z,2.9286
2023-03-26T03:31:55.518Z,3.7500
2023-03-26T03:33:02.553Z,3.7857
2023-03-26T03:34:09.475Z,4.4714
2023-03-26T03:35:16.449Z,4.5929
2023-03-26T03:36:23.437Z,5.5000
2023-03-26T03:37:30.417Z,4.6500
2023-03-26T03:38:37.446Z,3.2714
2023-03-26T03:39:44.410Z,4.9643
2023-03-26T03:40:51.364Z,3.6143
2023-03-26T03:41:58.365Z,3.7429
2023-03-26T03:43:05.361Z,4.1571
2023-03-26T03:44:12.344Z,3.8786
2023-03-26T03:45:19.315Z,4.4929
2023-03-26T03:46:26.351Z,4.2286
2023-03-26T03:47:33.336Z,7.0643
2023-03-26T03:48:40.281Z,3.9714
2023-03-26T03:49:47.243Z,5.4214
2023-03-26T03:50:54.250Z,5.0286
2023-03-26T03:52:01.223Z,4.8000
2023-03-26T03:53:08.213Z,5.0929
2023-03-26T03:54:15.179Z,3.6714
2023-03-26T03:55:22.200Z,4.0286
2023-03-26T03:56:29.194Z,4.0929
2023-03-26T03:57:36.150Z,3.8571
2023-03-26T03:58:43.138Z,3.1071
2023-03-26T03:59:50.115Z,4.9429
2023-03-26T04:00:57.090Z,4.3000
2023-03-26T04:02:04.101Z,4.3429
2023-03-26T04:03:11.151Z,4.2500
2023-03-26T04:04:18.093Z,4.9286
2023-03-26T04:05:25.011Z,4.2214
2023-03-26T04:06:32.024Z,3.6643
2023-03-26T04:07:39.007Z,3.3714
2023-03-26T04:08:45.994Z,3.5643
2023-03-26T04:09:52.957Z,4.9000
2023-03-26T04:10:59.947Z,4.1357
2023-03-26T04:12:06.913Z,2.5643
2023-03-26T04:13:13.933Z,3.7786
2023-03-26T04:14:20.895Z,3.3286
2023-03-26T04:15:28.110Z,2.8857
2023-03-26T04:16:34.909Z,3.7286
2023-03-26T04:17:41.876Z,3.1071
2023-03-26T04:18:48.812Z,3.4000
2023-03-26T04:19:55.822Z,5.1857
2023-03-26T04:21:02.780Z,4.4357
2023-03-26T04:22:09.794Z,4.4000
2023-03-26T04:23:16.742Z,3.8214
2023-03-26T04:24:23.769Z,3.1429
2023-03-26T04:25:30.718Z,3.5786
2023-03-26T04:26:37.730Z,4.7786
2023-03-26T04:27:44.681Z,3.8214
2023-03-26T04:28:51.683Z,3.1357
2023-03-26T04:29:58.657Z,5.2857
2023-03-26T04:31:05.691Z,3.3143
2023-03-26T04:32:12.607Z,4.2714
2023-03-26T04:33:19.615Z,4.6500
2023-03-26T04:34:26.598Z,3.4857
2023-03-26T04:35:33.607Z,3.7929
2023-03-26T04:36:40.576Z,4.7429
2023-03-26T04:37:47.570Z,4.3000
2023-03-26T04:38:54.529Z,3.7071
2023-03-26T04:40:01.513Z,4.8429
2023-03-26T04:41:08.478Z,3.8929
2023-03-26T04:42:15.522Z,4.0357
2023-03-26T04:43:22.436Z,3.3429
2023-03-26T04:44:29.444Z,3.7143
2023-03-26T04:45:36.402Z,4.2786
2023-03-26T04:46:43.523Z,5.3929
2023-03-26T04:47:50.482Z,4.3286
2023-03-26T04:48:57.410Z,3.6143
2023-03-26T04:50:04.350Z,4.3857
2023-03-26T04:51:11.343Z,5.8429
2023-03-26T04:52:18.300Z,5.5500
2023-03-26T04:53:25.295Z,4.7857
2023-03-26T04:54:32.289Z,4.8000
2023-03-26T04:55:39.290Z,5.7929
2023-03-26T04:56:46.282Z,4.7643
2023-03-26T04:57:53.252Z,4.0071
2023-03-26T04:59:00.187Z,3.5929
2023-03-26T05:00:07.190Z,4.3357
2023-03-26T05:01:14.206Z,3.1357
2023-03-26T05:02:21.164Z,5.3500
2023-03-26T05:03:28.118Z,3.4071
2023-03-26T05:04:35.239Z,4.6643
2023-03-26T05:05:42.146Z,4.9571
2023-03-26T05:06:49.162Z,4.0143
2023-03-26T05:07:56.135Z,4.3857
2023-03-26T05:09:03.150Z,4.6857
2023-03-26T05:10:10.093Z,4.4929
2023-03-26T05:11:17.096Z,4.0357
2023-03-26T05:12:24.062Z,2.1357
2023-03-26T05:13:31.080Z,3.7357
2023-03-26T05:14:38.046Z,4.3643
2023-03-26T05:15:45.048Z,4.9429
2023-03-26T05:16:52.014Z,3.4000
2023-03-26T05:17:59.124Z,3.5000
2023-03-26T05:19:05.960Z,5.5357
2023-03-26T05:20:12.981Z,3.3214
2023-03-26T05:21:19.945Z,4.7286
2023-03-26T05:22:26.942Z,4.4714
2023-03-26T05:23:33.897Z,4.7214
2023-03-26T05:24:40.902Z,4.1786
2023-03-26T05:25:47.883Z,3.9286
2023-03-26T05:26:54.896Z,3.4857
2023-03-26T05:28:01.828Z,3.5214
2023-03-26T05:29:08.839Z,4.8571
2023-03-26T05:30:15.798Z,4.2071
2023-03-26T05:31:22.810Z,4.4357
2023-03-26T05:32:29.829Z,3.4786
2023-03-26T05:33:36.850Z,4.7929
2023-03-26T05:34:43.724Z,4.6429
2023-03-26T05:35:50.731Z,5.4643
2023-03-26T05:36:57.705Z,4.6143
2023-03-26T05:38:04.692Z,5.9286
2023-03-26T05:39:11.662Z,3.3929
2023-03-26T05:40:18.657Z,2.4286
2023-03-26T05:41:25.638Z,5.6786
2023-03-26T05:42:32.644Z,4.6357
2023-03-26T05:43:39.686Z,4.1929
2023-03-26T05:44:46.597Z,5.0857
2023-03-26T05:45:53.604Z,5.3571
2023-03-26T05:47:00.572Z,4.2857
2023-03-26T05:48:07.577Z,4.4071
2023-03-26T05:49:14.550Z,4.1286
2023-03-26T05:50:21.506Z,3.7429
2023-03-26T05:51:28.500Z,5.1786
2023-03-26T05:52:35.484Z,4.2929
2023-03-26T05:53:42.466Z,4.2786
2023-03-26T05:54:49.454Z,5.3786
2023-03-26T05:55:56.445Z,5.2643
2023-03-26T05:57:03.418Z,4.7143
2023-03-26T05:58:10.450Z,4.0286
2023-03-26T05:59:17.373Z,4.0786
2023-03-26T06:00:24.385Z,4.3000
2023-03-26T06:01:31.343Z,5.1929
2023-03-26T06:02:38.341Z,4.1857
2023-03-26T06:03:45.369Z,4.4214
2023-03-26T06:04:52.323Z,4.7643
2023-03-26T06:05:59.275Z,3.7357
2023-03-26T06:07:06.282Z,3.6214
2023-03-26T06:08:13.289Z,4.3857
2023-03-26T06:09:20.217Z,3.9643
2023-03-26T06:10:27.230Z,3.0929
2023-03-26T06:11:34.204Z,5.0786
2023-03-26T06:12:41.171Z,3.8500
2023-03-26T06:13:48.144Z,4.8286
2023-03-26T06:14:55.111Z,3.6429
2023-03-26T06:16:02.222Z,3.5500
2023-03-26T06:17:09.091Z,3.1714
2023-03-26T06:18:16.105Z,5.4571
2023-03-26T06:19:23.058Z,5.0929
2023-03-26T06:20:30.058Z,4.1143
2023-03-26T06:21:37.026Z,4.1786
2023-03-26T06:22:44.039Z,3.5357
2023-03-26T06:23:51.004Z,5.0643
2023-03-26T06:24:58.012Z,4.8143
2023-03-26T06:26:04.985Z,3.0643
2023-03-26T06:27:11.978Z,3.5071
2023-03-26T06:28:18.930Z,4.4214
2023-03-26T06:29:25.954Z,4.2643
2023-03-26T06:30:32.924Z,3.3714
2023-03-26T06:31:39.918Z,4.3929
2023-03-26T06:32:46.994Z,4.9286
2023-03-26T06:33:53.877Z,5.1857
2023-03-26T06:35:00.844Z,3.9286
2023-03-26T06:36:07.883Z,3.2929
2023-03-26T06:37:14.819Z,5.3643
2023-03-26T06:38:21.815Z,4.1714
2023-03-26T06:39:28.767Z,3.7000
2023-03-26T06:40:35.767Z,3.3857
2023-03-26T06:41:42.750Z,5.3643
2023-03-26T06:43:09.586Z,5.1000
2023-03-26T06:44:01.500Z,4.7467
2023-03-26T06:45:08.491Z,5.9643
2023-03-26T06:46:15.483Z,3.8929
2023-03-26T06:47:22.485Z,3.5286
2023-03-26T06:48:29.419Z,3.9643
2023-03-26T06:49:36.424Z,4.2857
2023-03-26T06:50:43.409Z,4.1000
2023-03-26T06:51:50.398Z,3.8000
2023-03-26T06:52:57.355Z,3.8500
2023-03-26T06:54:04.358Z,5.2643
2023-03-26T06:55:11.350Z,5.1929
2023-03-26T06:56:18.343Z,3.5929
2023-03-26T06:57:25.296Z,4.2214
2023-03-26T06:58:32.291Z,6.0071
2023-03-26T06:59:39.247Z,3.8786
2023-03-26T07:00:46.321Z,3.4000
2023-03-26T07:01:53.241Z,3.9714
2023-03-26T07:03:00.251Z,3.4500
2023-03-26T07:04:07.267Z,4.6786
2023-03-26T07:05:14.198Z,3.6786
2023-03-26T07:06:21.177Z,5.8286
2023-03-26T07:07:28.177Z,6.3214
2023-03-26T07:08:35.130Z,6.5429
2023-03-26T07:09:42.119Z,4.2643
2023-03-26T07:10:49.080Z,4.0571
2023-03-26T07:11:56.100Z,3.0643
2023-03-26T07:13:03.072Z,3.8429
2023-03-26T07:14:10.077Z,3.6929
2023-03-26T07:15:17.021Z,5.1214
2023-03-26T07:16:24.062Z,3.9357
2023-03-26T07:17:31.069Z,4.3786
2023-03-26T07:18:38.012Z,4.7857
2023-03-26T07:19:44.975Z,4.4786
2023-03-26T07:20:52.082Z,4.6786
2023-03-26T07:21:58.928Z,3.8571
2023-03-26T07:23:05.932Z,3.3643
2023-03-26T07:24:12.902Z,3.1071
2023-03-26T07:25:19.929Z,3.8714
2023-03-26T07:26:26.887Z,4.8143
2023-03-26T07:27:33.860Z,4.2857
2023-03-26T07:28:40.849Z,3.5714
2023-03-26T07:29:47.854Z,4.1286
2023-03-26T07:30:54.948Z,3.4643
2023-03-26T07:32:01.875Z,3.6714
2023-03-26T07:33:08.756Z,4.6857
2023-03-26T07:34:15.756Z,5.4000
2023-03-26T07:35:22.737Z,3.7571
2023-03-26T07:36:29.758Z,4.5071
2023-03-26T07:37:36.729Z,4.4143
2023-03-26T07:38:43.697Z,4.1571
2023-03-26T07:39:50.654Z,4.8357
2023-03-26T07:40:57.664Z,3.2143
2023-03-26T07:42:04.632Z,3.6429
2023-03-26T07:43:11.635Z,3.8714
2023-03-26T07:44:18.590Z,4.2000
2023-03-26T07:45:25.586Z,4.4000
2023-03-26T07:46:32.544Z,4.2500
2023-03-26T07:47:39.582Z,4.0571
2023-03-26T07:48:46.529Z,4.2214
2023-03-26T07:49:53.532Z,4.6071
2023-03-26T07:51:00.480Z,3.9786
2023-03-26T07:52:07.482Z,4.0714
2023-03-26T07:53:14.452Z,5.1500
2023-03-26T07:54:21.454Z,4.0000
2023-03-26T07:55:28.427Z,4.1786
2023-03-26T07:56:35.555Z,3.9857
2023-03-26T07:57:42.437Z,3.2786
2023-03-26T07:58:49.386Z,3.6929
2023-03-26T07:59:56.327Z,3.8214
2023-03-26T08:01:03.341Z,3.6786
2023-03-26T08:02:10.305Z,3.6071
2023-03-26T08:03:17.569Z,4.6429
2023-03-26T08:04:25.940Z,3.6643
2023-03-26T08:05:36.051Z,3.5800
2023-03-26T08:06:43.020Z,3.6929
2023-03-26T08:07:50.027Z,4.4714
2023-03-26T08:08:56.978Z,6.1214
2023-03-26T08:10:04.023Z,3.5214
2023-03-26T08:11:10.953Z,4.9214
2023-03-26T08:12:17.943Z,5.2214
2023-03-26T08:13:24.908Z,4.2786
2023-03-26T08:14:31.916Z,3.8429
2023-03-26T08:15:38.945Z,3.7500
2023-03-26T08:16:45.919Z,3.4500
2023-03-26T08:17:52.929Z,3.4286
2023-03-26T08:18:59.840Z,3.6571
2023-03-26T08:20:06.834Z,3.4000
2023-03-26T08:21:13.835Z,5.1929
2023-03-26T08:22:20.794Z,3.6143
2023-03-26T08:23:27.808Z,5.1357
2023-03-26T08:24:34.750Z,4.0786
2023-03-26T08:25:41.703Z,3.5714
2023-03-26T08:26:48.730Z,4.3000
2023-03-26T08:27:55.709Z,5.3000
2023-03-26T08:29:02.673Z,4.6571
2023-03-26T08:30:09.661Z,4.0714
2023-03-26T08:31:16.677Z,3.8857
2023-03-26T08:32:23.625Z,4.1857
2023-03-26T08:33:30.646Z,4.1000
2023-03-26T08:34:37.575Z,3.4000
2023-03-26T08:35:44.593Z,2.8214
2023-03-26T08:36:51.536Z,3.2071
2023-03-26T08:37:58.550Z,3.7500
2023-03-26T08:39:05.517Z,3.3500
2023-03-26T08:40:12.504Z,4.0500
2023-03-26T08:41:19.474Z,3.6000
2023-03-26T08:42:26.479Z,2.9643
2023-03-26T08:43:33.475Z,4.0571
2023-03-26T08:44:40.466Z,5.3071
2023-03-26T08:45:47.413Z,3.5714
2023-03-26T08:46:54.482Z,4.4071
2023-03-26T08:48:01.419Z,3.6214
2023-03-26T08:49:08.396Z,3.1786
2023-03-26T08:50:15.359Z,2.9000
2023-03-26T08:51:22.358Z,2.7500
2023-03-26T08:52:29.329Z,2.0714
2023-03-26T08:53:36.319Z,3.3929
2023-03-26T08:54:43.320Z,2.6643
2023-03-26T08:55:50.299Z,3.9286
2023-03-26T08:56:57.296Z,3.4571
2023-03-26T08:58:04.287Z,2.9000
2023-03-26T08:59:11.231Z,2.9143
2023-03-26T09:00:18.234Z,2.7571
2023-03-26T09:01:25.232Z,2.6143
2023-03-26T09:02:32.249Z,2.3429
2023-03-26T09:03:39.208Z,1.9857
2023-03-26T09:04:46.169Z,1.7357
2023-03-26T09:05:53.117Z,3.6071
2023-03-26T09:07:00.132Z,3.3857
2023-03-26T09:08:07.165Z,3.0357
2023-03-26T09:09:19.250Z,2.8786
2023-03-26T09:10:25.909Z,3.5400
2023-03-26T09:11:32.908Z,3.4214
2023-03-26T09:12:39.875Z,3.0143
2023-03-26T09:13:46.885Z,4.3357
2023-03-26T09:14:53.846Z,4.3643
2023-03-26T09:16:00.851Z,4.6214
2023-03-26T09:17:07.834Z,4.1357
2023-03-26T09:18:14.816Z,3.1286
2023-03-26T09:19:21.801Z,3.8286
2023-03-26T09:20:28.816Z,3.7571
2023-03-26T09:21:35.720Z,3.1429
2023-03-26T09:22:42.725Z,4.0571
2023-03-26T09:23:49.698Z,3.6214
2023-03-26T09:24:56.711Z,4.3214
2023-03-26T09:26:03.659Z,4.0071
2023-03-26T09:27:10.643Z,3.5786
2023-03-26T09:28:17.609Z,4.6214
2023-03-26T09:29:24.604Z,2.9286
2023-03-26T09:30:31.591Z,4.3429
2023-03-26T09:31:38.623Z,4.2857
2023-03-26T09:32:45.600Z,4.1929
2023-03-26T09:33:52.526Z,2.9071
2023-03-26T09:34:59.484Z,3.7571
2023-03-26T09:36:06.508Z,4.1500
2023-03-26T09:37:13.467Z,3.8571
2023-03-26T09:38:20.484Z,3.5000
2023-03-26T09:39:27.427Z,2.7000
2023-03-26T09:40:34.413Z,3.2500
2023-03-26T09:41:41.399Z,2.8857
2023-03-26T09:42:48.397Z,3.6786
2023-03-26T09:43:55.348Z,3.3214
2023-03-26T09:45:02.345Z,2.9071
2023-03-26T09:46:09.345Z,3.4143
2023-03-26T09:47:16.325Z,3.5357
2023-03-26T09:48:23.269Z,2.6214
2023-03-26T09:49:30.266Z,2.8000
2023-03-26T09:50:37.221Z,4.1857
2023-03-26T09:51:44.256Z,4.4357
2023-03-26T09:52:51.208Z,2.4000
2023-03-26T09:53:58.186Z,3.1357
2023-03-26T09:55:05.164Z,4.4357
2023-03-26T09:56:12.156Z,3.4000
2023-03-26T09:57:19.260Z,4.0143
2023-03-26T09:58:26.159Z,3.7214
2023-03-26T09:59:33.106Z,3.3143
2023-03-26T10:00:40.113Z,2.5571
2023-03-26T10:01:47.043Z,2.9714
2023-03-26T10:02:54.089Z,2.9857
2023-03-26T10:04:01.011Z,2.2786
2023-03-26T10:05:08.089Z,2.5286
2023-03-26T10:06:14.962Z,3.2500
2023-03-26T10:07:21.968Z,2.4714
2023-03-26T10:08:31.632Z,3.2286
2023-03-26T10:09:40.727Z,1.7067
2023-03-26T10:10:47.663Z,2.7286
2023-03-26T10:11:54.665Z,3.1429
2023-03-26T10:13:13.658Z,2.9500
2023-03-26T10:14:13.426Z,4.1067
2023-03-26T10:15:20.393Z,2.7500
2023-03-26T10:16:27.407Z,2.1286
2023-03-26T10:17:34.417Z,3.3071
2023-03-26T10:18:41.332Z,3.0143
2023-03-26T10:19:48.301Z,2.5643
2023-03-26T10:20:55.476Z,3.5429
2023-03-26T10:22:02.246Z,2.6214
2023-03-26T10:23:09.244Z,3.8929
2023-03-26T10:24:16.209Z,3.9929
2023-03-26T10:25:23.238Z,3.3357
2023-03-26T10:26:30.168Z,3.2643
2023-03-26T10:27:37.173Z,2.8500
2023-03-26T10:28:44.129Z,3.1643
2023-03-26T10:29:51.131Z,4.2643
2023-03-26T10:30:58.248Z,4.4214
2023-03-26T10:32:05.096Z,2.8929
2023-03-26T10:33:12.045Z,3.3357
2023-03-26T10:34:28.571Z,5.2429
2023-03-26T10:35:30.804Z,3.4667
2023-03-26T10:36:37.804Z,4.0071
2023-03-26T10:37:45.557Z,3.7929
2023-03-26T10:38:51.752Z,4.4571
2023-03-26T10:39:58.712Z,3.1571
2023-03-26T10:41:05.709Z,3.4857
2023-03-26T10:42:12.686Z,3.6357
2023-03-26T10:43:19.686Z,3.4929
2023-03-26T10:44:26.635Z,2.9071
2023-03-26T10:45:33.634Z,3.5214
2023-03-26T10:46:40.619Z,2.6429
2023-03-26T10:47:47.630Z,3.3857
2023-03-26T10:48:54.563Z,3.0929
2023-03-26T10:50:01.554Z,3.1429
2023-03-26T10:51:08.500Z,3.9357
2023-03-26T10:52:15.498Z,2.5857
2023-03-26T10:53:22.467Z,4.0571
2023-03-26T10:54:29.467Z,3.4786
2023-03-26T10:55:36.436Z,4.4286
2023-03-26T10:56:43.445Z,4.5786
2023-03-26T10:57:50.380Z,3.4857
2023-03-26T10:58:57.395Z,2.9214
2023-03-26T11:00:04.327Z,3.1857
2023-03-26T11:01:11.352Z,2.7000
2023-03-26T11:02:18.280Z,4.0786
2023-03-26T11:03:25.279Z,3.4786
2023-03-26T11:04:32.254Z,3.8643
2023-03-26T11:05:39.310Z,4.1643
2023-03-26T11:06:46.202Z,4.3357
2023-03-26T11:07:53.194Z,5.9357
2023-03-26T11:09:00.160Z,4.2571
2023-03-26T11:10:07.184Z,3.1786
2023-03-26T11:11:14.121Z,4.6071
2023-03-26T11:12:27.280Z,4.2857
2023-03-26T11:13:32.853Z,3.3467
2023-03-26T11:14:39.854Z,2.7714
2023-03-26T11:15:46.859Z,3.1857
2023-03-26T11:16:53.823Z,3.2643
2023-03-26T11:18:00.799Z,2.3643
2023-03-26T11:19:07.774Z,3.3643
2023-03-26T11:20:14.745Z,3.8857
2023-03-26T11:21:21.743Z,3.5714
2023-03-26T11:22:28.882Z,4.8429
2023-03-26T11:23:35.691Z,4.0000
2023-03-26T11:24:42.656Z,3.1786
2023-03-26T11:25:49.655Z,4.3214
2023-03-26T11:26:56.626Z,3.4357
2023-03-26T11:28:03.613Z,3.2571
2023-03-26T11:29:32.891Z,3.0286
2023-03-26T11:30:22.350Z,3.0400
2023-03-26T11:31:29.351Z,3.1000
2023-03-26T11:32:36.345Z,3.0643
2023-03-26T11:33:45.597Z,3.8929
2023-03-26T11:34:55.084Z,3.7400
2023-03-26T11:36:02.031Z,3.1357
2023-03-26T11:37:09.011Z,3.8714
2023-03-26T11:38:16.005Z,3.4643
2023-03-26T11:39:22.974Z,4.5214
2023-03-26T11:40:29.930Z,3.5929
2023-03-26T11:41:36.925Z,2.5786
2023-03-26T11:42:43.890Z,2.2143
2023-03-26T11:43:50.903Z,2.7786
2023-03-26T11:44:57.870Z,1.9786
2023-03-26T11:46:04.882Z,2.5429
2023-03-26T11:47:11.827Z,2.3429
2023-03-26T11:48:18.804Z,4.1143
2023-03-26T11:49:25.786Z,2.2071
2023-03-26T11:50:32.782Z,2.3357
2023-03-26T11:51:39.735Z,2.1714
2023-03-26T11:52:47.154Z,2.5000
2023-03-26T11:53:53.690Z,3.0357
2023-03-26T11:55:00.700Z,2.7357
2023-03-26T11:56:07.732Z,3.2500
2023-03-26T11:57:14.680Z,3.1000
2023-03-26T11:58:21.619Z,3.0643
2023-03-26T11:59:28.609Z,3.1357
2023-03-26T12:00:35.556Z,3.2714
2023-03-26T12:01:42.597Z,2.5786
2023-03-26T12:02:49.600Z,3.3286
2023-03-26T12:03:56.549Z,3.3214
2023-03-26T12:05:03.459Z,2.8929
2023-03-26T12:06:10.471Z,2.7500
2023-03-26T12:07:17.438Z,2.9000
2023-03-26T12:08:24.450Z,4.0643
2023-03-26T12:09:31.385Z,3.5857
2023-03-26T12:10:38.630Z,2.6571
2023-03-26T12:11:45.332Z,3.4643
2023-03-26T12:12:52.355Z,4.6286
2023-03-26T12:13:59.303Z,3.2429
2023-03-26T12:15:06.302Z,3.2571
2023-03-26T12:16:13.331Z,4.1286
2023-03-26T12:17:20.248Z,1.6786
2023-03-26T12:18:32.028Z,2.4933
2023-03-26T12:19:39.011Z,2.8429
2023-03-26T12:20:45.975Z,2.9000
2023-03-26T12:21:52.951Z,2.5429
2023-03-26T12:22:59.909Z,2.5714
2023-03-26T12:24:06.915Z,1.7929
2023-03-26T12:25:13.890Z,2.5929
2023-03-26T12:26:20.863Z,2.6714
2023-03-26T12:27:27.822Z,2.4071
2023-03-26T12:28:34.819Z,2.0000
2023-03-26T12:29:41.788Z,2.2143
2023-03-26T12:30:48.799Z,1.9714
2023-03-26T12:31:55.943Z,2.3071
2023-03-26T12:33:02.773Z,2.4071
2023-03-26T12:34:09.707Z,1.8857
2023-03-26T12:35:16.701Z,2.3643
2023-03-26T12:36:23.668Z,2.8357
2023-03-26T12:37:30.653Z,2.5143
2023-03-26T12:38:37.621Z,1.9929
2023-03-26T12:40:09.944Z,1.8357
2023-03-26T12:40:56.455Z,1.8133
2023-03-26T12:43:40.603Z,1.1357
2023-03-26T12:44:54.027Z,1.6933
2023-03-26T12:44:55.724Z,2.3800
2023-03-26T12:45:38.673Z,1.1600
2023-03-26T12:47:58.245Z,1.3000
2023-03-26T12:48:03.889Z,2.1000
2023-03-26T12:49:09.237Z,3.3400
2023-03-26T12:50:16.105Z,1.2143
2023-03-26T12:51:23.112Z,1.4000
2023-03-26T12:52:30.076Z,1.9929
2023-03-26T12:53:37.087Z,2.3857
2023-03-26T12:54:44.024Z,1.7286
2023-03-26T12:55:51.033Z,2.0571
2023-03-26T12:57:11.401Z,2.5000
2023-03-26T12:58:14.031Z,1.6067
2023-03-26T12:59:21.533Z,2.0067
2023-03-26T13:00:28.513Z,1.2714
2023-03-26T13:01:35.508Z,1.7571
2023-03-26T13:02:42.519Z,1.3643
2023-03-26T13:03:51.821Z,2.0929
2023-03-26T13:05:06.425Z,1.1933
2023-03-26T13:06:12.970Z,1.6533
2023-03-26T13:07:19.949Z,2.2214
2023-03-26T13:08:26.908Z,1.8571
2023-03-26T13:09:33.926Z,1.8214
2023-03-26T13:10:40.906Z,2.1286
2023-03-26T13:11:47.855Z,1.5857
2023-03-26T13:12:54.842Z,1.2857
2023-03-26T13:14:01.814Z,1.8286
2023-03-26T13:15:08.870Z,1.8143
2023-03-26T13:16:15.850Z,2.3571
2023-03-26T13:17:22.923Z,2.0714
2023-03-26T13:18:29.803Z,2.2286
2023-03-26T13:19:36.782Z,2.2714
2023-03-26T13:20:43.752Z,3.3500
2023-03-26T13:21:53.017Z,2.9500
2023-03-26T13:23:02.505Z,2.0200
2023-03-26T13:24:09.505Z,2.0500
2023-03-26T13:25:16.465Z,1.8429
2023-03-26T13:26:23.453Z,2.1714
2023-03-26T13:27:30.413Z,2.0643
2023-03-26T13:28:37.403Z,1.6143
2023-03-26T13:29:44.375Z,0.9357
2023-03-26T13:30:51.409Z,1.6429
2023-03-26T13:31:58.361Z,2.1571
2023-03-26T13:33:05.378Z,1.5357
2023-03-26T13:34:12.303Z,1.3571
2023-03-26T13:35:19.326Z,1.2143
2023-03-26T13:36:26.317Z,1.1000
2023-03-26T13:37:33.262Z,1.1357
2023-03-26T13:38:40.201Z,2.1286
2023-03-26T13:39:47.230Z,1.1714
2023-03-26T13:40:54.338Z,2.8571
2023-03-26T13:42:01.190Z,3.2500
2023-03-26T13:43:08.121Z,2.8429
2023-03-26T13:44:15.167Z,1.8786
2023-03-26T13:45:22.227Z,1.4857
2023-03-26T13:46:29.124Z,2.3286
2023-03-26T13:47:36.075Z,3.0857
2023-03-26T13:48:43.036Z,2.7929
2023-03-26T13:49:49.997Z,2.4786
2023-03-26T13:50:57.182Z,2.5643
2023-03-26T13:52:03.965Z,2.0429
2023-03-26T13:53:10.989Z,2.6143
2023-03-26T13:54:17.912Z,2.4429
2023-03-26T13:55:24.907Z,2.1786
2023-03-26T13:56:31.933Z,2.1857
2023-03-26T13:57:38.924Z,3.0714